Time;durP1;ratioP1;P1;durP2;ratioP2;P2;SDS_P1;SDS_P2;PMS_P1;PMS_P2;Temp;Humidity;BMP_temperature;BMP_pressure;BME280_temperature;BME280_humidity;BME280_pressure;Samples;Min_cycle;Max_cycle;Signal;HPM_P1;HPM_P2
2021/09/10 00:01:23;;;;;;;1999.90;999.90;;;;;;;14.29;100.00;95951.41;5029960;28;20297;-77
2021/09/10 00:03:50;;;;;;;1999.90;999.90;;;;;;;14.34;100.00;95956.50;5029328;28;20201;-77
2021/09/10 00:06:19;;;;;;;1999.90;999.90;;;;;;;14.33;100.00;95949.72;5257942;22;20229;-68
2021/09/10 00:08:46;;;;;;;1999.90;999.90;;;;;;;14.30;100.00;95950.31;5045011;28;20240;-68
2021/09/10 00:11:13;;;;;;;1999.90;999.90;;;;;;;14.32;100.00;95952.63;5035762;28;20277;-66
2021/09/10 00:13:41;;;;;;;1999.90;999.90;;;;;;;14.40;100.00;95952.66;5035841;28;20197;-67
2021/09/10 00:16:08;;;;;;;1999.90;999.90;;;;;;;14.41;100.00;95954.22;5035514;28;20228;-68
2021/09/10 00:18:35;;;;;;;1999.90;999.90;;;;;;;14.30;100.00;95947.69;5035580;28;20208;-68
2021/09/10 00:21:02;;;;;;;1999.90;999.90;;;;;;;14.32;100.00;95948.16;5035415;28;20292;-69
2021/09/10 00:23:34;;;;;;;1999.90;999.90;;;;;;;14.40;100.00;95950.03;5035743;28;20268;-68
2021/09/10 00:26:01;;;;;;;1999.90;999.90;;;;;;;14.45;100.00;95949.91;5035205;28;20575;-67
2021/09/10 00:28:29;;;;;;;1999.90;999.90;;;;;;;14.44;100.00;95952.84;5035605;28;20414;-69
2021/09/10 00:30:56;;;;;;;1999.90;999.90;;;;;;;14.46;100.00;95951.44;5035240;28;20267;-69
2021/09/10 00:33:23;;;;;;;1999.90;999.90;;;;;;;14.56;100.00;95950.38;5035231;28;20197;-68
2021/09/10 00:35:50;;;;;;;1999.90;999.90;;;;;;;14.54;99.66;95942.84;5035390;28;20232;-68
2021/09/10 00:38:17;;;;;;;1999.90;999.90;;;;;;;14.51;99.40;95943.44;5035288;28;20213;-68
2021/09/10 00:40:46;;;;;;;1999.90;999.90;;;;;;;14.46;99.92;95941.00;5035023;28;20193;-68
2021/09/10 00:43:14;;;;;;;1999.90;999.90;;;;;;;14.50;99.81;95944.53;5035265;28;20283;-67
2021/09/10 00:45:44;;;;;;;1999.90;999.90;;;;;;;14.64;99.04;95947.75;5035068;28;20197;-68
2021/09/10 00:48:11;;;;;;;1999.90;999.90;;;;;;;14.63;98.73;95946.25;5035061;28;20255;-67
2021/09/10 00:50:39;;;;;;;1999.90;999.90;;;;;;;14.58;99.30;95946.41;5034971;28;20707;-68
2021/09/10 00:53:06;;;;;;;1999.90;999.90;;;;;;;14.62;99.06;95946.53;5034930;28;20197;-70
2021/09/10 00:55:35;;;;;;;1999.90;999.90;;;;;;;14.59;99.08;95945.28;5034989;28;20217;-69
2021/09/10 00:58:04;;;;;;;1999.90;999.90;;;;;;;14.61;99.14;95943.16;5034831;28;20208;-69
2021/09/10 01:00:31;;;;;;;1999.90;999.90;;;;;;;14.65;99.13;95944.06;5034842;28;20748;-69
2021/09/10 01:02:59;;;;;;;1999.90;999.90;;;;;;;14.53;98.95;95945.78;5035099;28;20583;-68
2021/09/10 01:05:26;;;;;;;1999.90;999.90;;;;;;;14.54;99.38;95942.84;5035004;28;20205;-67
2021/09/10 01:07:54;;;;;;;1999.90;999.90;;;;;;;14.46;99.61;95946.22;5034691;28;20232;-67
2021/09/10 01:10:22;;;;;;;1999.90;999.90;;;;;;;14.40;100.00;95933.59;5034868;28;20197;-68
2021/09/10 01:12:50;;;;;;;1999.90;999.90;;;;;;;14.41;100.00;95932.50;5034811;28;20206;-68
2021/09/10 01:15:20;;;;;;;1999.90;999.90;;;;;;;14.51;99.64;95938.22;5034907;28;20233;-68
2021/09/10 01:17:48;;;;;;;1999.90;999.90;;;;;;;14.56;99.19;95934.69;5034661;28;20229;-69
2021/09/10 01:20:15;;;;;;;1999.90;999.90;;;;;;;14.51;99.18;95938.22;5030394;28;20197;-68
2021/09/10 01:22:42;;;;;;;1999.90;999.90;;;;;;;14.52;99.02;95931.91;5031816;28;20208;-69
2021/09/10 01:25:13;;;;;;;1999.90;999.90;;;;;;;14.43;99.12;95933.75;5031754;28;20202;-69
2021/09/10 01:27:43;;;;;;;1999.90;999.90;;;;;;;14.43;99.20;95925.91;5031924;28;20622;-69
2021/09/10 01:30:11;;;;;;;1999.90;999.90;;;;;;;14.44;99.13;95927.47;5031805;28;20228;-69
2021/09/10 01:32:39;;;;;;;1999.90;999.90;;;;;;;14.39;99.57;95929.44;5031704;28;20596;-69
2021/09/10 01:35:07;;;;;;;1999.90;999.90;;;;;;;14.21;100.00;95918.94;5031436;28;20225;-69
2021/09/10 01:37:35;;;;;;;1999.90;999.90;;;;;;;14.12;100.00;95915.53;5031587;28;20206;-67
2021/09/10 01:40:02;;;;;;;1999.90;999.90;;;;;;;14.11;100.00;95919.22;5031313;28;20202;-67
2021/09/10 01:42:31;;;;;;;1999.90;999.90;;;;;;;14.15;100.00;95920.16;5031589;28;20206;-68
2021/09/10 01:44:58;;;;;;;1999.90;999.90;;;;;;;14.20;100.00;95927.06;5031226;28;20194;-69
2021/09/10 01:47:25;;;;;;;1999.90;999.90;;;;;;;14.24;100.00;95928.03;5031145;28;20198;-68
2021/09/10 01:49:53;;;;;;;1999.90;999.90;;;;;;;14.20;100.00;95925.22;5031530;28;20206;-69
2021/09/10 01:52:20;;;;;;;1999.90;999.90;;;;;;;14.21;100.00;95931.22;5031084;28;20209;-68
2021/09/10 01:54:48;;;;;;;1999.90;999.90;;;;;;;14.17;100.00;95933.69;5031330;28;20256;-68
2021/09/10 01:57:15;;;;;;;1999.90;999.90;;;;;;;14.23;100.00;95921.25;5030936;28;20210;-69
2021/09/10 01:59:44;;;;;;;1999.90;999.90;;;;;;;14.23;100.00;95926.47;5030977;28;20748;-69
2021/09/10 02:02:11;;;;;;;1999.90;999.90;;;;;;;14.19;100.00;95922.94;5027042;28;20248;-68
2021/09/10 02:04:39;;;;;;;1999.90;999.90;;;;;;;14.11;100.00;95923.66;5027887;28;20202;-68
2021/09/10 02:07:06;;;;;;;1999.90;999.90;;;;;;;14.08;100.00;95929.53;5027068;28;20720;-67
2021/09/10 02:09:34;;;;;;;1999.90;999.90;;;;;;;14.06;100.00;95927.19;5023000;28;20285;-67
2021/09/10 02:12:02;;;;;;;1999.90;999.90;;;;;;;14.00;100.00;95923.19;5030403;28;20292;-68
2021/09/10 02:14:29;;;;;;;1999.90;999.90;;;;;;;13.98;100.00;95924.56;5030677;28;20256;-68
2021/09/10 02:16:58;;;;;;;1999.90;999.90;;;;;;;14.07;100.00;95927.97;5030361;28;20713;-68
2021/09/10 02:19:25;;;;;;;1999.90;999.90;;;;;;;14.02;100.00;95930.72;5030528;28;20285;-67
2021/09/10 02:21:53;;;;;;;1999.90;999.90;;;;;;;14.02;100.00;95928.88;5030582;28;20198;-67
2021/09/10 02:24:20;;;;;;;1999.90;999.90;;;;;;;13.95;100.00;95925.16;5030336;28;20213;-67
2021/09/10 02:26:47;;;;;;;1999.90;999.90;;;;;;;13.97;100.00;95928.25;5030378;28;20206;-68
2021/09/10 02:29:15;;;;;;;1999.90;999.90;;;;;;;13.91;100.00;95927.63;5030260;28;20584;-66
2021/09/10 02:31:42;;;;;;;1999.90;999.90;;;;;;;13.97;100.00;95923.81;5029836;28;20197;-69
2021/09/10 02:34:11;;;;;;;1999.90;999.90;;;;;;;13.90;100.00;95926.06;5029996;28;20202;-69
2021/09/10 02:36:38;;;;;;;1999.90;999.90;;;;;;;13.84;100.00;95923.91;5030109;28;20233;-69
2021/09/10 02:39:08;;;;;;;1999.90;999.90;;;;;;;13.93;100.00;95925.47;5030259;28;20225;-68
2021/09/10 02:41:35;;;;;;;1999.90;999.90;;;;;;;13.98;100.00;95924.56;5030057;28;20198;-68
2021/09/10 02:44:03;;;;;;;1999.90;999.90;;;;;;;14.00;100.00;95927.63;5029902;28;20206;-69
2021/09/10 02:46:30;;;;;;;1999.90;999.90;;;;;;;13.99;100.00;95920.91;5030093;28;20198;-67
2021/09/10 02:48:58;;;;;;;1999.90;999.90;;;;;;;13.91;100.00;95924.22;5029840;28;20309;-68
2021/09/10 02:51:27;;;;;;;1999.90;999.90;;;;;;;13.94;100.00;95921.03;5029999;28;20198;-68
2021/09/10 02:53:54;;;;;;;1999.90;999.90;;;;;;;13.99;100.00;95919.06;5029986;28;20208;-68
2021/09/10 02:56:22;;;;;;;1999.90;999.90;;;;;;;13.95;100.00;95912.88;5028994;28;20260;-69
2021/09/10 02:58:52;;;;;;;1999.90;999.90;;;;;;;13.96;100.00;95924.09;5026434;28;20197;-69
2021/09/10 03:01:19;;;;;;;1999.90;999.90;;;;;;;13.87;100.00;95931.13;5029398;28;20716;-69
2021/09/10 03:03:46;;;;;;;1999.90;999.90;;;;;;;13.89;100.00;95926.41;5029707;28;20219;-69
2021/09/10 03:06:14;;;;;;;1999.90;999.90;;;;;;;13.86;100.00;95929.59;5029217;28;20683;-69
2021/09/10 03:08:43;;;;;;;1999.90;999.90;;;;;;;13.84;100.00;95939.59;5029463;28;20212;-69
2021/09/10 03:11:10;;;;;;;1999.90;999.90;;;;;;;13.61;100.00;95936.25;5029545;28;20606;-69
2021/09/10 03:13:38;;;;;;;1999.90;999.90;;;;;;;13.56;100.00;95934.56;5017258;28;20279;-68
2021/09/10 03:16:06;;;;;;;1999.90;999.90;;;;;;;13.62;100.00;95935.19;5009732;28;20234;-69
2021/09/10 03:18:33;;;;;;;1999.90;999.90;;;;;;;13.63;100.00;95937.53;5009485;28;20229;-67
2021/09/10 03:21:01;;;;;;;1999.90;999.90;;;;;;;13.61;100.00;95939.66;5012753;28;20213;-68
2021/09/10 03:23:28;;;;;;;1999.90;999.90;;;;;;;13.41;100.00;95948.00;5010107;28;20202;-68
2021/09/10 03:25:57;;;;;;;1999.90;999.90;;;;;;;13.39;100.00;95944.16;5010029;28;20194;-68
2021/09/10 03:28:24;;;;;;;1999.90;999.90;;;;;;;13.36;100.00;95945.50;5009587;28;20194;-67
2021/09/10 03:30:51;;;;;;;1999.90;999.90;;;;;;;13.39;100.00;95938.94;5009556;28;20202;-69
2021/09/10 03:33:19;;;;;;;1999.90;999.90;;;;;;;13.30;100.00;95928.44;5009444;28;20208;-68
2021/09/10 03:35:46;;;;;;;1999.90;999.90;;;;;;;13.43;100.00;95934.66;5009705;28;20225;-68
2021/09/10 03:38:13;;;;;;;1999.90;999.90;;;;;;;13.41;100.00;95936.78;5009473;28;20203;-68
2021/09/10 03:40:40;;;;;;;1999.90;999.90;;;;;;;13.25;100.00;95933.81;5009558;28;20202;-68
2021/09/10 03:43:09;;;;;;;1999.90;999.90;;;;;;;13.20;100.00;95936.53;5008763;28;20289;-68
2021/09/10 03:45:37;;;;;;;1999.90;999.90;;;;;;;13.04;100.00;95937.94;5015200;28;20199;-67
2021/09/10 03:48:05;;;;;;;1999.90;999.90;;;;;;;12.84;100.00;95947.78;5024109;28;20209;-68
2021/09/10 03:50:32;;;;;;;1999.90;999.90;;;;;;;12.88;100.00;95934.91;5029008;28;20206;-68
2021/09/10 03:52:59;;;;;;;1999.90;999.90;;;;;;;12.91;100.00;95945.53;5029092;28;20559;-68
2021/09/10 03:55:27;;;;;;;1999.90;999.90;;;;;;;12.82;100.00;95939.47;5029119;28;20197;-70
2021/09/10 03:57:54;;;;;;;1999.90;999.90;;;;;;;12.97;100.00;95946.19;5024339;28;20214;-69
2021/09/10 04:00:22;;;;;;;1999.90;999.90;;;;;;;13.05;100.00;95944.69;5009229;28;20404;-67
2021/09/10 04:02:49;;;;;;;1999.90;999.90;;;;;;;13.11;100.00;95946.91;5009268;28;20214;-70
2021/09/10 04:05:17;;;;;;;1999.90;999.90;;;;;;;13.20;100.00;95942.50;5009759;28;20238;-70
2021/09/10 04:07:44;;;;;;;1999.90;999.90;;;;;;;13.29;100.00;95951.19;5025785;28;20233;-69
2021/09/10 04:10:11;;;;;;;1999.90;999.90;;;;;;;13.35;100.00;95943.97;5024863;28;20213;-69
2021/09/10 04:12:39;;;;;;;1999.90;999.90;;;;;;;13.39;100.00;95947.53;5026196;28;20240;-69
2021/09/10 04:15:07;;;;;;;1999.90;999.90;;;;;;;13.39;100.00;95952.75;5026959;28;20704;-69
2021/09/10 04:17:36;;;;;;;1999.90;999.90;;;;;;;13.54;100.00;95952.38;5027056;28;20230;-69
2021/09/10 04:20:03;;;;;;;1999.90;999.90;;;;;;;13.52;100.00;95949.28;5027362;28;20197;-69
2021/09/10 04:22:30;;;;;;;1999.90;999.90;;;;;;;13.49;100.00;95957.75;5027248;28;20197;-69
2021/09/10 04:24:57;;;;;;;1999.90;999.90;;;;;;;13.41;100.00;95953.22;5027546;28;20208;-69
2021/09/10 04:27:25;;;;;;;1999.90;999.90;;;;;;;13.28;100.00;95959.31;5028595;28;20308;-69
2021/09/10 04:29:52;;;;;;;1999.90;999.90;;;;;;;13.11;100.00;95959.16;5028501;28;20244;-69
2021/09/10 04:32:19;;;;;;;1999.90;999.90;;;;;;;13.23;100.00;95962.81;5028551;28;20662;-69
2021/09/10 04:34:48;;;;;;;1999.90;999.90;;;;;;;13.44;100.00;95972.75;5028479;28;20204;-68
2021/09/10 04:37:16;;;;;;;1999.90;999.90;;;;;;;13.54;100.00;95964.66;5028495;28;20218;-68
2021/09/10 04:39:43;;;;;;;1999.90;999.90;;;;;;;13.57;100.00;95966.66;5028735;28;20277;-69
2021/09/10 04:42:10;;;;;;;1999.90;999.90;;;;;;;13.65;100.00;95965.94;5028465;28;20197;-69
2021/09/10 04:44:37;;;;;;;1999.90;999.90;;;;;;;13.79;100.00;95966.63;5028574;28;20205;-68
2021/09/10 04:47:05;;;;;;;1999.90;999.90;;;;;;;13.89;100.00;95971.59;5028464;28;20198;-69
2021/09/10 04:49:32;;;;;;;1999.90;999.90;;;;;;;13.86;100.00;95974.00;5028529;28;20295;-69
2021/09/10 04:52:00;;;;;;;1999.90;999.90;;;;;;;13.89;100.00;95968.19;5028519;28;20202;-69
2021/09/10 04:54:28;;;;;;;1999.90;999.90;;;;;;;13.84;100.00;95978.78;5031047;28;20208;-68
2021/09/10 04:56:55;;;;;;;1999.90;999.90;;;;;;;13.89;100.00;95978.66;5032423;28;20263;-68
2021/09/10 04:59:22;;;;;;;1999.90;999.90;;;;;;;13.85;100.00;95985.56;5032192;28;20202;-69
2021/09/10 05:01:49;;;;;;;1999.90;999.90;;;;;;;13.99;100.00;95983.59;5032365;28;20205;-69
2021/09/10 05:04:17;;;;;;;1999.90;999.90;;;;;;;14.14;100.00;95983.19;5032293;28;20296;-68
2021/09/10 05:06:45;;;;;;;1999.90;999.90;;;;;;;14.34;100.00;95980.03;5022681;28;20309;-68
2021/09/10 05:09:13;;;;;;;1999.90;999.90;;;;;;;14.52;100.00;95983.47;5012213;28;20210;-68
2021/09/10 05:11:40;;;;;;;1999.90;999.90;;;;;;;14.56;99.09;95990.38;5012140;28;20210;-69
2021/09/10 05:14:09;;;;;;;1999.90;999.90;;;;;;;14.47;99.62;95979.13;5012009;28;20698;-69
2021/09/10 05:16:37;;;;;;;1999.90;999.90;;;;;;;14.53;99.98;95985.78;5012159;28;20332;-69
2021/09/10 05:19:04;;;;;;;1999.90;999.90;;;;;;;14.64;99.28;95984.38;5012020;28;20210;-69
2021/09/10 05:21:31;;;;;;;1999.90;999.90;;;;;;;14.62;99.39;95978.69;5023979;28;20201;-69
2021/09/10 05:23:59;;;;;;;1999.90;999.90;;;;;;;14.72;99.46;95982.09;5031698;28;20287;-69
2021/09/10 05:26:27;;;;;;;1999.90;999.90;;;;;;;14.81;99.26;95977.63;5031739;28;20197;-69
2021/09/10 05:28:55;;;;;;;1999.90;999.90;;;;;;;14.88;98.44;95975.34;5031497;28;20260;-69
2021/09/10 05:31:22;;;;;;;1999.90;999.90;;;;;;;14.80;99.16;95976.09;5031884;28;20201;-70
2021/09/10 05:33:49;;;;;;;1999.90;999.90;;;;;;;14.88;99.69;95970.88;5031575;28;20201;-70
2021/09/10 05:36:17;;;;;;;1999.90;999.90;;;;;;;14.96;98.84;95969.31;5031649;28;20229;-69
2021/09/10 05:38:44;;;;;;;1999.90;999.90;;;;;;;15.01;98.87;95969.16;5031716;28;20264;-69
2021/09/10 05:41:11;;;;;;;1999.90;999.90;;;;;;;15.06;98.75;95966.38;5031393;28;20213;-69
2021/09/10 05:43:40;;;;;;;1999.90;999.90;;;;;;;15.13;98.40;95974.56;5031712;28;20198;-70
2021/09/10 05:46:07;;;;;;;1999.90;999.90;;;;;;;15.12;99.49;95969.63;5031568;28;20284;-70
2021/09/10 05:48:35;;;;;;;1999.90;999.90;;;;;;;15.18;100.00;95974.38;5031219;28;20189;-69
2021/09/10 05:51:02;;;;;;;1999.90;999.90;;;;;;;15.19;100.00;95968.06;5031327;28;20228;-70
2021/09/10 05:53:30;;;;;;;1999.90;999.90;;;;;;;15.18;100.00;95974.38;5031242;28;20212;-71
2021/09/10 05:55:58;;;;;;;1999.90;999.90;;;;;;;15.24;100.00;95970.50;5031251;28;20198;-70
2021/09/10 05:58:25;;;;;;;1999.90;999.90;;;;;;;15.23;100.00;95976.84;5031208;28;20236;-70
2021/09/10 06:00:53;;;;;;;1999.90;999.90;;;;;;;15.37;100.00;95966.97;5031039;28;20201;-70
2021/09/10 06:03:21;;;;;;;1999.90;999.90;;;;;;;15.72;100.00;95972.13;5031096;28;20292;-70
2021/09/10 06:05:48;;;;;;;1999.90;999.90;;;;;;;15.89;98.03;95966.81;5030162;28;20252;-70
2021/09/10 06:08:16;;;;;;;1999.90;999.90;;;;;;;16.02;96.17;95975.56;5030931;28;20665;-69
2021/09/10 06:10:45;;;;;;;1999.90;999.90;;;;;;;16.21;95.92;95973.31;5030816;28;20233;-70
2021/09/10 06:13:12;;;;;;;1999.90;999.90;;;;;;;16.29;96.21;95977.72;5030848;28;20197;-70
2021/09/10 06:15:39;;;;;;;1999.90;999.90;;;;;;;16.53;94.46;95977.91;5031057;28;20201;-70
2021/09/10 06:18:08;;;;;;;1999.90;999.90;;;;;;;16.64;94.48;95979.09;5030672;28;20320;-68
2021/09/10 06:20:35;;;;;;;1999.90;999.90;;;;;;;16.75;93.54;95980.25;5030692;28;20206;-67
2021/09/10 06:23:03;;;;;;;1999.90;999.90;;;;;;;17.08;92.24;95982.16;5030818;28;20875;-68
2021/09/10 06:25:30;;;;;;;1999.90;999.90;;;;;;;17.23;90.75;95986.03;5030969;28;20193;-69
2021/09/10 06:27:57;;;;;;;1999.90;999.90;;;;;;;17.43;89.77;95974.72;5030848;28;20216;-69
2021/09/10 06:30:25;;;;;;;1999.90;999.90;;;;;;;17.56;89.88;95965.78;5030336;28;20198;-68
2021/09/10 06:32:52;;;;;;;1999.90;999.90;;;;;;;17.68;88.54;95970.31;5030292;28;20308;-68
2021/09/10 06:35:22;;;;;;;1999.90;999.90;;;;;;;17.95;87.68;95959.16;5030736;28;20197;-69
2021/09/10 06:37:50;;;;;;;1999.90;999.90;;;;;;;17.95;87.11;95967.81;5030436;28;20206;-69
2021/09/10 06:40:17;;;;;;;1999.90;999.90;;;;;;;18.06;87.15;95976.81;5030337;28;20194;-69
2021/09/10 06:42:44;;;;;;;1999.90;999.90;;;;;;;18.13;86.48;95972.88;5030306;28;20202;-68
2021/09/10 06:45:13;;;;;;;1999.90;999.90;;;;;;;18.19;86.77;95971.53;5030129;28;20259;-70
2021/09/10 06:47:41;;;;;;;1999.90;999.90;;;;;;;18.38;85.13;95969.88;5030418;28;20277;-69
2021/09/10 06:50:10;;;;;;;1999.90;999.90;;;;;;;18.34;84.11;95968.25;5030086;28;20260;-69
2021/09/10 06:52:40;;;;;;;1999.90;999.90;;;;;;;18.62;84.52;95974.41;5030029;28;20236;-69
2021/09/10 06:55:09;;;;;;;1999.90;999.90;;;;;;;18.72;83.29;95970.53;5030333;28;20296;-69
2021/09/10 06:57:37;;;;;;;1999.90;999.90;;;;;;;18.96;82.49;95972.31;5029719;28;20229;-69
2021/09/10 07:00:05;;;;;;;1999.90;999.90;;;;;;;19.08;81.53;95974.94;5030210;28;20251;-70
2021/09/10 07:02:32;;;;;;;1999.90;999.90;;;;;;;18.99;79.58;95971.63;5030171;28;20293;-69
2021/09/10 07:04:59;;;;;;;1999.90;999.90;;;;;;;19.40;76.18;95965.97;5029797;28;20251;-69
2021/09/10 07:07:26;;;;;;;1999.90;999.90;;;;;;;19.61;74.27;95966.56;5029409;28;20267;-68
2021/09/10 07:09:55;;;;;;;1999.90;999.90;;;;;;;19.85;72.99;95973.53;5029748;28;20292;-69
2021/09/10 07:12:22;;;;;;;1999.90;999.90;;;;;;;19.88;70.74;95980.75;5029680;28;20239;-68
2021/09/10 07:14:50;;;;;;;1999.90;999.90;;;;;;;19.87;73.00;95973.22;5029629;28;20233;-69
2021/09/10 07:17:17;;;;;;;1999.90;999.90;;;;;;;19.55;71.92;95977.69;5029092;28;20247;-69
2021/09/10 07:19:44;;;;;;;1999.90;999.90;;;;;;;19.85;74.65;95983.31;5029641;28;20202;-68
2021/09/10 07:22:12;;;;;;;1999.90;999.90;;;;;;;20.27;71.16;95984.34;5029494;28;20233;-69
2021/09/10 07:24:39;;;;;;;1999.90;999.90;;;;;;;19.99;72.31;95987.06;5029544;28;20256;-70
2021/09/10 07:27:08;;;;;;;1999.90;999.90;;;;;;;20.31;71.14;95987.84;5028923;28;20309;-69
2021/09/10 07:29:35;;;;;;;1999.90;999.90;;;;;;;20.42;69.96;95977.53;5029403;28;20206;-69
2021/09/10 07:32:02;;;;;;;1999.90;999.90;;;;;;;20.61;69.68;95973.06;5029598;28;20271;-68
2021/09/10 07:34:29;;;;;;;1999.90;999.90;;;;;;;20.33;70.10;95972.41;5029419;28;20210;-68
2021/09/10 07:36:59;;;;;;;1999.90;999.90;;;;;;;20.29;70.06;95963.63;5029169;28;20320;-69
2021/09/10 07:39:27;;;;;;;1999.90;999.90;;;;;;;20.43;68.90;95974.53;5029333;28;20666;-68
2021/09/10 07:41:55;;;;;;;1999.90;999.90;;;;;;;20.60;68.21;95976.78;5029174;28;20193;-69
2021/09/10 07:44:24;;;;;;;1999.90;999.90;;;;;;;20.88;67.42;95970.56;5029145;28;20247;-69
2021/09/10 07:46:53;;;;;;;1999.90;999.90;;;;;;;21.32;66.30;95971.81;5029078;28;20682;-70
2021/09/10 07:49:21;;;;;;;1999.90;999.90;;;;;;;21.70;65.97;95976.28;5029136;28;20233;-70
2021/09/10 07:51:50;;;;;;;1999.90;999.90;;;;;;;21.53;65.69;95976.72;5029158;28;20296;-69
2021/09/10 07:54:17;;;;;;;1999.90;999.90;;;;;;;21.11;65.79;95968.00;5029162;28;20284;-68
2021/09/10 07:56:44;;;;;;;1999.90;999.90;;;;;;;21.43;63.77;95972.03;5028895;28;20263;-69
2021/09/10 07:59:12;;;;;;;1999.90;999.90;;;;;;;21.88;62.54;95966.75;5029161;28;20248;-68
2021/09/10 08:01:41;;;;;;;1999.90;999.90;;;;;;;22.17;58.50;95962.69;5028677;28;20570;-69
2021/09/10 08:04:08;;;;;;;1999.90;999.90;;;;;;;22.28;53.79;95960.19;5028898;28;20206;-69
2021/09/10 08:06:36;;;;;;;1999.90;999.90;;;;;;;22.15;54.55;95959.66;5028561;28;20289;-68
2021/09/10 08:09:04;;;;;;;1999.90;999.90;;;;;;;22.58;55.19;95954.94;5028882;28;20212;-69
2021/09/10 08:11:33;;;;;;;1999.90;999.90;;;;;;;22.43;54.51;95961.94;5028908;28;20202;-70
2021/09/10 08:14:02;;;;;;;1999.90;999.90;;;;;;;22.87;52.57;95956.09;5028789;28;20233;-68
2021/09/10 08:16:29;;;;;;;1999.90;999.90;;;;;;;22.90;51.24;95958.03;5028861;28;20687;-68
2021/09/10 08:18:58;;;;;;;1999.90;999.90;;;;;;;22.76;51.10;95955.97;5028621;28;20586;-68
2021/09/10 08:21:25;;;;;;;1999.90;999.90;;;;;;;22.81;51.80;95952.25;5028813;28;20201;-68
2021/09/10 08:23:53;;;;;;;1999.90;999.90;;;;;;;22.91;52.30;95957.69;5029107;28;20669;-68
2021/09/10 08:26:20;;;;;;;1999.90;999.90;;;;;;;23.04;53.17;95956.31;5028861;28;20209;-69
2021/09/10 08:28:48;;;;;;;1999.90;999.90;;;;;;;23.04;51.86;95944.94;5030424;28;20207;-70
2021/09/10 08:31:15;;;;;;;1999.90;999.90;;;;;;;23.27;51.05;95942.91;5032836;28;20751;-69
2021/09/10 08:33:42;;;;;;;1999.90;999.90;;;;;;;23.32;53.01;95941.81;5032587;28;20293;-69
2021/09/10 08:36:11;;;;;;;1999.90;999.90;;;;;;;23.67;52.78;95947.47;5032541;28;20208;-69
2021/09/10 08:38:38;;;;;;;1999.90;999.90;;;;;;;23.83;52.12;95936.63;5032551;28;20268;-69
2021/09/10 08:41:05;;;;;;;1999.90;999.90;;;;;;;24.13;50.45;95944.44;5032564;28;20209;-69
2021/09/10 08:43:33;;;;;;;1999.90;999.90;;;;;;;24.34;48.67;95939.28;5032812;28;20220;-69
2021/09/10 08:46:00;;;;;;;1999.90;999.90;;;;;;;23.69;50.31;95939.94;5032721;28;20206;-69
2021/09/10 08:48:28;;;;;;;1999.90;999.90;;;;;;;24.00;50.40;95934.13;5032318;28;20194;-69
2021/09/10 08:50:57;;;;;;;1999.90;999.90;;;;;;;24.00;49.71;95938.66;5032409;28;20198;-69
2021/09/10 08:53:25;;;;;;;1999.90;999.90;;;;;;;24.21;48.56;95940.75;5032284;28;20693;-70
2021/09/10 08:55:53;;;;;;;1999.90;999.90;;;;;;;24.34;49.01;95933.97;5032263;28;20198;-69
2021/09/10 08:58:20;;;;;;;1999.90;999.90;;;;;;;24.59;45.68;95929.56;5032454;28;20257;-69
2021/09/10 09:00:47;;;;;;;1999.90;999.90;;;;;;;24.50;46.63;95926.50;5032234;28;20259;-69
2021/09/10 09:03:15;;;;;;;1999.90;999.90;;;;;;;24.32;46.83;95921.06;5032304;28;20237;-70
2021/09/10 09:05:42;;;;;;;1999.90;999.90;;;;;;;24.49;47.20;95919.66;5032003;28;20202;-69
2021/09/10 09:08:14;;;;;;;1999.90;999.90;;;;;;;24.80;45.67;95919.03;5032355;28;20217;-69
2021/09/10 09:11:00;;;;;;;1999.90;999.90;;;;;;;24.88;42.83;95908.44;5032031;28;20202;-69
2021/09/10 09:13:30;;;;;;;1999.90;999.90;;;;;;;24.67;42.75;95909.09;5032275;28;20214;-68
2021/09/10 09:16:23;;;;;;;1999.90;999.90;;;;;;;24.36;42.84;95900.59;5031289;28;20767;-70
2021/09/10 09:18:53;;;;;;;1999.90;999.90;;;;;;;24.16;44.04;95904.59;5019389;28;20218;-70
2021/09/10 09:21:26;;;;;;;1999.90;999.90;;;;;;;24.30;44.30;95906.63;5031335;28;20190;-70
2021/09/10 09:23:55;;;;;;;1999.90;999.90;;;;;;;24.56;42.64;95909.03;5012070;28;20198;-70
2021/09/10 09:26:26;;;;;;;1999.90;999.90;;;;;;;24.54;42.02;95900.69;5029073;28;20198;-70
2021/09/10 09:29:06;;;;;;;1999.90;999.90;;;;;;;24.67;40.47;95901.09;5032350;28;20206;-71
2021/09/10 09:31:34;;;;;;;1999.90;999.90;;;;;;;25.00;41.98;95902.78;5031883;28;20182;-70
2021/09/10 09:34:01;;;;;;;1999.90;999.90;;;;;;;25.39;40.23;95900.19;5031621;28;20202;-70
2021/09/10 09:36:28;;;;;;;1999.90;999.90;;;;;;;25.38;39.04;95893.34;5031898;28;20209;-70
2021/09/10 09:38:56;;;;;;;1999.90;999.90;;;;;;;25.11;39.75;95895.56;5031482;28;20317;-70
2021/09/10 09:41:26;;;;;;;1999.90;999.90;;;;;;;24.76;40.20;95883.66;5030245;28;20205;-68
2021/09/10 09:44:08;;;;;;;1999.90;999.90;;;;;;;24.37;40.36;95891.47;5031515;28;20202;-69
2021/09/10 09:46:36;;;;;;;1999.90;999.90;;;;;;;24.27;42.50;95880.78;5031491;28;20721;-69
2021/09/10 09:49:09;;;;;;;1999.90;999.90;;;;;;;24.69;41.47;95881.00;5031680;28;20206;-69
2021/09/10 09:51:37;;;;;;;1999.90;999.90;;;;;;;24.80;40.57;95883.72;5031145;28;20189;-69
2021/09/10 09:54:04;;;;;;;1999.90;999.90;;;;;;;25.17;39.98;95891.41;5031268;28;20196;-69
2021/09/10 09:56:33;;;;;;;1999.90;999.90;;;;;;;25.21;39.83;95878.88;5031525;28;20284;-68
2021/09/10 09:59:01;;;;;;;1999.90;999.90;;;;;;;25.45;39.89;95882.72;5031126;28;20218;-70
2021/09/10 10:01:28;;;;;;;1999.90;999.90;;;;;;;25.66;38.81;95872.84;5030832;28;20255;-69
2021/09/10 10:03:55;;;;;;;1999.90;999.90;;;;;;;25.45;40.40;95864.09;5030648;28;20749;-69
2021/09/10 10:06:25;;;;;;;1999.90;999.90;;;;;;;25.73;39.16;95866.00;5030665;28;20236;-69
2021/09/10 10:08:55;;;;;;;1999.90;999.90;;;;;;;25.91;39.66;95861.41;5031003;28;20251;-69
2021/09/10 10:11:24;;;;;;;1999.90;999.90;;;;;;;26.06;38.06;95860.25;5030992;28;20190;-69
2021/09/10 10:13:58;;;;;;;1999.90;999.90;;;;;;;26.00;37.75;95859.88;5030875;28;20232;-69
2021/09/10 10:16:40;;;;;;;1999.90;999.90;;;;;;;25.83;38.87;95851.94;5030745;28;20269;-69
2021/09/10 10:19:09;;;;;;;1999.90;999.90;;;;;;;25.89;37.38;95853.84;5030654;28;20225;-68
2021/09/10 10:21:54;;;;;;;1999.90;999.90;;;;;;;25.71;37.58;95858.41;5030946;28;20205;-69
2021/09/10 10:24:42;;;;;;;1999.90;999.90;;;;;;;25.99;36.78;95852.28;5030846;28;20209;-70
2021/09/10 10:27:32;;;;;;;1999.90;999.90;;;;;;;26.00;35.63;95854.56;5030694;28;20815;-70
2021/09/10 10:30:02;;;;;;;1999.90;999.90;;;;;;;25.75;34.62;95858.41;5030408;28;20749;-70
2021/09/10 10:32:33;;;;;;;1999.90;999.90;;;;;;;25.53;35.37;95865.59;5030605;28;20313;-70
2021/09/10 10:35:23;;;;;;;1999.90;999.90;;;;;;;25.58;33.04;95862.59;5030705;28;20213;-70
2021/09/10 10:37:52;;;;;;;1999.90;999.90;;;;;;;25.77;33.28;95853.44;5030362;28;20240;-69
2021/09/10 10:40:36;;;;;;;1999.90;999.90;;;;;;;25.91;33.08;95850.75;5030252;28;20205;-69
2021/09/10 10:43:06;;;;;;;1999.90;999.90;;;;;;;26.00;31.75;95845.81;5030328;28;20572;-70
2021/09/10 10:46:03;;;;;;;1999.90;999.90;;;;;;;25.94;31.99;95839.38;5030968;28;20190;-70
2021/09/10 10:48:52;;;;;;;1999.90;999.90;;;;;;;25.88;30.93;95836.31;5025662;28;20677;-71
2021/09/10 10:51:52;;;;;;;1999.90;999.90;;;;;;;25.87;31.41;95842.03;5029952;28;20193;-70
2021/09/10 10:54:29;;;;;;;1999.90;999.90;;;;;;;26.24;31.13;95837.03;5030274;28;20185;-67
2021/09/10 10:56:58;;;;;;;1999.90;999.90;;;;;;;26.14;31.69;95840.47;5030029;28;20190;-69
2021/09/10 10:59:35;;;;;;;1999.90;999.90;;;;;;;26.04;32.05;95835.91;5029955;28;20628;-68